N02SD KAPA-KTEX
Flight info
| Callsign | N02SD |
|---|---|
| Flight time | 0h 46m |
| Altitude | 24000 |
| Route | ROCKI7 MTJ ETL |
| Aircraft | 2100/L-SDFGRWY/S |
Departure
| Time | 2026-04-18 01:59 |
|---|---|
| Airport | Centennial Airport (KAPA) |
Arrival
| Time | 2026-04-18 02:46 |
|---|---|
| Airport | Telluride Regional Airport (KTEX) |
| Time | Latitude | Longitude | Altitude | Speed | Heading |
|---|---|---|---|---|---|
| 2026-04-18 01:35 | 39.57623 | -104.84673 | 5826 ft | 0 kts | 99° |
| 2026-04-18 01:53 | 39.57619 | -104.84663 | 5824 ft | 4 kts | 140° |
| 2026-04-18 01:53 | 39.57609 | -104.84696 | 5825 ft | 7 kts | 304° |
| 2026-04-18 01:54 | 39.57619 | -104.84861 | 5824 ft | 9 kts | 267° |
| 2026-04-18 01:54 | 39.57553 | -104.84892 | 5828 ft | 14 kts | 176° |
| 2026-04-18 01:54 | 39.57453 | -104.84889 | 5834 ft | 12 kts | 186° |
| 2026-04-18 01:54 | 39.57401 | -104.84960 | 5838 ft | 14 kts | 178° |
| 2026-04-18 01:55 | 39.57287 | -104.84954 | 5842 ft | 19 kts | 177° |
| 2026-04-18 01:55 | 39.57133 | -104.84948 | 5846 ft | 24 kts | 176° |
| 2026-04-18 01:55 | 39.56966 | -104.84940 | 5853 ft | 25 kts | 179° |
| 2026-04-18 01:55 | 39.56790 | -104.84931 | 5853 ft | 27 kts | 178° |
| 2026-04-18 01:56 | 39.56599 | -104.84922 | 5866 ft | 27 kts | 178° |
| 2026-04-18 01:56 | 39.56407 | -104.84914 | 5871 ft | 29 kts | 179° |
| 2026-04-18 01:56 | 39.56226 | -104.84904 | 5875 ft | 25 kts | 179° |
| 2026-04-18 01:56 | 39.56049 | -104.84897 | 5885 ft | 25 kts | 178° |
| 2026-04-18 01:57 | 39.55900 | -104.84891 | 5888 ft | 17 kts | 176° |
| 2026-04-18 01:57 | 39.55776 | -104.84885 | 5892 ft | 17 kts | 177° |
| 2026-04-18 01:57 | 39.55696 | -104.84883 | 5891 ft | 8 kts | 202° |
| 2026-04-18 01:57 | 39.55683 | -104.84901 | 5891 ft | 0 kts | 259° |
| 2026-04-18 01:58 | 39.55683 | -104.84902 | 5891 ft | 0 kts | 261° |
| 2026-04-18 01:58 | 39.55681 | -104.84935 | 5891 ft | 11 kts | 269° |
| 2026-04-18 01:59 | 39.55714 | -104.85022 | 5892 ft | 15 kts | 354° |
| 2026-04-18 01:59 | 39.55922 | -104.85032 | 5887 ft | 71 kts | 358° |
| 2026-04-18 01:59 | 39.56744 | -104.85075 | 6034 ft | 150 kts | 358° |
| 2026-04-18 01:59 | 39.57897 | -104.85277 | 6646 ft | 184 kts | 337° |
| 2026-04-18 02:00 | 39.58767 | -104.86596 | 7158 ft | 208 kts | 288° |
| 2026-04-18 02:00 | 39.58557 | -104.88472 | 7614 ft | 226 kts | 244° |
| 2026-04-18 02:00 | 39.57488 | -104.90051 | 7831 ft | 238 kts | 230° |
| 2026-04-18 02:00 | 39.56735 | -104.91960 | 7927 ft | 242 kts | 255° |
| 2026-04-18 02:01 | 39.55984 | -104.93918 | 7952 ft | 250 kts | 230° |
| 2026-04-18 02:01 | 39.54571 | -104.94932 | 7971 ft | 232 kts | 192° |
| 2026-04-18 02:01 | 39.53038 | -104.94567 | 7981 ft | 227 kts | 152° |
| 2026-04-18 02:01 | 39.51978 | -104.93134 | 8133 ft | 217 kts | 120° |
| 2026-04-18 02:02 | 39.51697 | -104.91251 | 8663 ft | 218 kts | 78° |
| 2026-04-18 02:02 | 39.52435 | -104.89609 | 9217 ft | 212 kts | 34° |
| 2026-04-18 02:02 | 39.53772 | -104.88957 | 9796 ft | 205 kts | 7° |
| 2026-04-18 02:02 | 39.55173 | -104.88556 | 10341 ft | 207 kts | 7° |
| 2026-04-18 02:03 | 39.56587 | -104.88165 | 10864 ft | 206 kts | 3° |
| 2026-04-18 02:03 | 39.57923 | -104.88546 | 11381 ft | 199 kts | 322° |
| 2026-04-18 02:03 | 39.58807 | -104.90069 | 11935 ft | 231 kts | 301° |
| 2026-04-18 02:03 | 39.59437 | -104.92100 | 12494 ft | 255 kts | 283° |
| 2026-04-18 02:04 | 39.59445 | -104.94447 | 13048 ft | 265 kts | 269° |
| 2026-04-18 02:04 | 39.59324 | -104.96830 | 13613 ft | 271 kts | 268° |
| 2026-04-18 02:04 | 39.59179 | -104.99284 | 14164 ft | 275 kts | 268° |
| 2026-04-18 02:04 | 39.59029 | -105.01760 | 14666 ft | 277 kts | 268° |
| 2026-04-18 02:05 | 39.58876 | -105.04253 | 15192 ft | 278 kts | 268° |
| 2026-04-18 02:05 | 39.58727 | -105.06758 | 15717 ft | 280 kts | 268° |
| 2026-04-18 02:05 | 39.58577 | -105.09300 | 16005 ft | 287 kts | 268° |
| 2026-04-18 02:05 | 39.58431 | -105.11900 | 16199 ft | 292 kts | 268° |
| 2026-04-18 02:06 | 39.58285 | -105.14504 | 16630 ft | 289 kts | 268° |
| 2026-04-18 02:06 | 39.58142 | -105.17112 | 16976 ft | 291 kts | 268° |
| 2026-04-18 02:06 | 39.58005 | -105.19706 | 17250 ft | 294 kts | 268° |
| 2026-04-18 02:06 | 39.57871 | -105.22368 | 17498 ft | 297 kts | 268° |
| 2026-04-18 02:07 | 39.57732 | -105.25052 | 17710 ft | 300 kts | 268° |
| 2026-04-18 02:07 | 39.57597 | -105.27755 | 17896 ft | 301 kts | 268° |
| 2026-04-18 02:07 | 39.57461 | -105.30473 | 18074 ft | 302 kts | 268° |
| 2026-04-18 02:07 | 39.57318 | -105.33177 | 18481 ft | 298 kts | 268° |
| 2026-04-18 02:08 | 39.57174 | -105.35818 | 19112 ft | 289 kts | 268° |
| 2026-04-18 02:08 | 39.57028 | -105.38388 | 19873 ft | 283 kts | 266° |
| 2026-04-18 02:08 | 39.56804 | -105.40893 | 20778 ft | 276 kts | 264° |
| 2026-04-18 02:08 | 39.56561 | -105.43332 | 21838 ft | 270 kts | 263° |
| 2026-04-18 02:09 | 39.56319 | -105.45782 | 22547 ft | 279 kts | 263° |
| 2026-04-18 02:09 | 39.56080 | -105.48298 | 23147 ft | 283 kts | 263° |
| 2026-04-18 02:09 | 39.55859 | -105.50862 | 23600 ft | 290 kts | 264° |
| 2026-04-18 02:09 | 39.55847 | -105.53472 | 23756 ft | 297 kts | 270° |
| 2026-04-18 02:10 | 39.55899 | -105.56172 | 23848 ft | 302 kts | 269° |
| 2026-04-18 02:10 | 39.55706 | -105.58881 | 23882 ft | 303 kts | 260° |
| 2026-04-18 02:10 | 39.55254 | -105.61558 | 23905 ft | 306 kts | 258° |
| 2026-04-18 02:10 | 39.54730 | -105.64237 | 23904 ft | 308 kts | 255° |
| 2026-04-18 02:11 | 39.53968 | -105.66837 | 23923 ft | 309 kts | 250° |
| 2026-04-18 02:11 | 39.53190 | -105.69434 | 23922 ft | 309 kts | 253° |
| 2026-04-18 02:11 | 39.52539 | -105.72078 | 23932 ft | 309 kts | 253° |
| 2026-04-18 02:11 | 39.51760 | -105.74672 | 23928 ft | 309 kts | 251° |
| 2026-04-18 02:12 | 39.51046 | -105.77292 | 23930 ft | 308 kts | 253° |
| 2026-04-18 02:12 | 39.50362 | -105.79884 | 23937 ft | 309 kts | 252° |
| 2026-04-18 02:12 | 39.49598 | -105.82488 | 23939 ft | 310 kts | 251° |
| 2026-04-18 02:12 | 39.48876 | -105.85105 | 23928 ft | 308 kts | 253° |
| 2026-04-18 02:13 | 39.48165 | -105.87718 | 23927 ft | 307 kts | 252° |
| 2026-04-18 02:13 | 39.47420 | -105.90313 | 23944 ft | 308 kts | 251° |
| 2026-04-18 02:13 | 39.46698 | -105.92933 | 23932 ft | 309 kts | 253° |
| 2026-04-18 02:13 | 39.45991 | -105.95556 | 23943 ft | 310 kts | 252° |
| 2026-04-18 02:14 | 39.45231 | -105.98156 | 23937 ft | 309 kts | 251° |
| 2026-04-18 02:14 | 39.44490 | -106.00768 | 23925 ft | 309 kts | 253° |
| 2026-04-18 02:14 | 39.43789 | -106.03365 | 23918 ft | 310 kts | 254° |
| 2026-04-18 02:14 | 39.43070 | -106.05999 | 23912 ft | 311 kts | 253° |
| 2026-04-18 02:15 | 39.42303 | -106.08609 | 23916 ft | 309 kts | 252° |
| 2026-04-18 02:15 | 39.41569 | -106.11217 | 24001 ft | 308 kts | 254° |
| 2026-04-18 02:15 | 39.40862 | -106.13823 | 24020 ft | 308 kts | 253° |
| 2026-04-18 02:15 | 39.40118 | -106.16427 | 24049 ft | 310 kts | 253° |
| 2026-04-18 02:16 | 39.39357 | -106.19030 | 24078 ft | 310 kts | 253° |
| 2026-04-18 02:16 | 39.38651 | -106.21667 | 24092 ft | 311 kts | 254° |
| 2026-04-18 02:16 | 39.37913 | -106.24296 | 24086 ft | 311 kts | 252° |
| 2026-04-18 02:16 | 39.37145 | -106.26865 | 24132 ft | 311 kts | 252° |
| 2026-04-18 02:17 | 39.36429 | -106.29503 | 24145 ft | 311 kts | 254° |
| 2026-04-18 02:17 | 39.35687 | -106.32137 | 24148 ft | 312 kts | 252° |
| 2026-04-18 02:17 | 39.34912 | -106.34752 | 24145 ft | 311 kts | 253° |
| 2026-04-18 02:17 | 39.34187 | -106.37384 | 24146 ft | 311 kts | 254° |
| 2026-04-18 02:18 | 39.33450 | -106.40016 | 24146 ft | 312 kts | 253° |
| 2026-04-18 02:18 | 39.32684 | -106.42636 | 24142 ft | 312 kts | 253° |
| 2026-04-18 02:18 | 39.31929 | -106.45257 | 24150 ft | 311 kts | 254° |
| 2026-04-18 02:18 | 39.31224 | -106.47859 | 24132 ft | 311 kts | 254° |
| 2026-04-18 02:19 | 39.30473 | -106.50472 | 24143 ft | 311 kts | 252° |
| 2026-04-18 02:19 | 39.29690 | -106.53084 | 24146 ft | 313 kts | 253° |
| 2026-04-18 02:19 | 39.28962 | -106.55727 | 24143 ft | 313 kts | 254° |
| 2026-04-18 02:19 | 39.28211 | -106.58367 | 24150 ft | 314 kts | 253° |
| 2026-04-18 02:20 | 39.27434 | -106.60998 | 24153 ft | 313 kts | 253° |
| 2026-04-18 02:20 | 39.26707 | -106.63628 | 24123 ft | 311 kts | 253° |
| 2026-04-18 02:20 | 39.25933 | -106.66230 | 24139 ft | 311 kts | 252° |
| 2026-04-18 02:20 | 39.25034 | -106.68770 | 24155 ft | 314 kts | 246° |
| 2026-04-18 02:21 | 39.23921 | -106.71160 | 24164 ft | 317 kts | 244° |
| 2026-04-18 02:21 | 39.22733 | -106.73563 | 24176 ft | 319 kts | 243° |
| 2026-04-18 02:21 | 39.21543 | -106.75975 | 24188 ft | 319 kts | 243° |
| 2026-04-18 02:21 | 39.20328 | -106.78381 | 24189 ft | 321 kts | 243° |
| 2026-04-18 02:22 | 39.19037 | -106.80741 | 24197 ft | 325 kts | 238° |
| 2026-04-18 02:22 | 39.17556 | -106.82948 | 24183 ft | 326 kts | 236° |
| 2026-04-18 02:22 | 39.16139 | -106.85209 | 24195 ft | 323 kts | 239° |
| 2026-04-18 02:22 | 39.14810 | -106.87545 | 24193 ft | 324 kts | 239° |
| 2026-04-18 02:23 | 39.13354 | -106.89777 | 24180 ft | 326 kts | 235° |
| 2026-04-18 02:23 | 39.11953 | -106.91999 | 24167 ft | 323 kts | 239° |
| 2026-04-18 02:23 | 39.10614 | -106.94315 | 24158 ft | 322 kts | 239° |
| 2026-04-18 02:23 | 39.09196 | -106.96553 | 24166 ft | 323 kts | 237° |
| 2026-04-18 02:24 | 39.07783 | -106.98808 | 24140 ft | 323 kts | 239° |
| 2026-04-18 02:24 | 39.06421 | -107.01109 | 24175 ft | 325 kts | 238° |
| 2026-04-18 02:24 | 39.04962 | -107.03337 | 24167 ft | 324 kts | 237° |
| 2026-04-18 02:24 | 39.03584 | -107.05617 | 24173 ft | 323 kts | 240° |
| 2026-04-18 02:25 | 39.02203 | -107.07916 | 24178 ft | 327 kts | 237° |
| 2026-04-18 02:25 | 39.00746 | -107.10167 | 24180 ft | 327 kts | 238° |
| 2026-04-18 02:25 | 38.99410 | -107.12489 | 24366 ft | 322 kts | 241° |
| 2026-04-18 02:25 | 38.97967 | -107.14695 | 24265 ft | 329 kts | 235° |
| 2026-04-18 02:26 | 38.96500 | -107.16933 | 24205 ft | 326 kts | 239° |
| 2026-04-18 02:26 | 38.95153 | -107.19276 | 24199 ft | 326 kts | 239° |
| 2026-04-18 02:26 | 38.93697 | -107.21523 | 24186 ft | 328 kts | 236° |
| 2026-04-18 02:26 | 38.92262 | -107.23773 | 24179 ft | 323 kts | 239° |
| 2026-04-18 02:27 | 38.90907 | -107.26085 | 24190 ft | 326 kts | 238° |
| 2026-04-18 02:27 | 38.89452 | -107.28333 | 24186 ft | 328 kts | 236° |
| 2026-04-18 02:27 | 38.88024 | -107.30604 | 24187 ft | 326 kts | 239° |
| 2026-04-18 02:27 | 38.86631 | -107.32903 | 24193 ft | 327 kts | 238° |
| 2026-04-18 02:28 | 38.85204 | -107.35131 | 24176 ft | 327 kts | 237° |
| 2026-04-18 02:28 | 38.83788 | -107.37397 | 24186 ft | 325 kts | 238° |
| 2026-04-18 02:28 | 38.82380 | -107.39672 | 24190 ft | 326 kts | 238° |
| 2026-04-18 02:28 | 38.80963 | -107.41953 | 24187 ft | 329 kts | 238° |
| 2026-04-18 02:29 | 38.79506 | -107.44221 | 24183 ft | 329 kts | 237° |
| 2026-04-18 02:29 | 38.78074 | -107.46510 | 24184 ft | 329 kts | 239° |
| 2026-04-18 02:29 | 38.76662 | -107.48815 | 24190 ft | 330 kts | 238° |
| 2026-04-18 02:29 | 38.75207 | -107.51078 | 24183 ft | 328 kts | 237° |
| 2026-04-18 02:30 | 38.73773 | -107.53345 | 24195 ft | 327 kts | 239° |
| 2026-04-18 02:30 | 38.72380 | -107.55649 | 24197 ft | 329 kts | 238° |
| 2026-04-18 02:30 | 38.70921 | -107.57860 | 24193 ft | 329 kts | 237° |
| 2026-04-18 02:30 | 38.69497 | -107.60144 | 24195 ft | 328 kts | 239° |
| 2026-04-18 02:31 | 38.68090 | -107.62445 | 24201 ft | 329 kts | 237° |
| 2026-04-18 02:31 | 38.66616 | -107.64689 | 24176 ft | 330 kts | 237° |
| 2026-04-18 02:31 | 38.65191 | -107.66987 | 24187 ft | 329 kts | 239° |
| 2026-04-18 02:31 | 38.63761 | -107.69279 | 24193 ft | 331 kts | 237° |
| 2026-04-18 02:32 | 38.62287 | -107.71537 | 24193 ft | 330 kts | 237° |
| 2026-04-18 02:32 | 38.60867 | -107.73837 | 24197 ft | 330 kts | 238° |
| 2026-04-18 02:32 | 38.59419 | -107.76131 | 24194 ft | 333 kts | 237° |
| 2026-04-18 02:32 | 38.57959 | -107.78386 | 24207 ft | 334 kts | 237° |
| 2026-04-18 02:33 | 38.56518 | -107.80707 | 24206 ft | 334 kts | 238° |
| 2026-04-18 02:33 | 38.55049 | -107.83009 | 24221 ft | 335 kts | 237° |
| 2026-04-18 02:33 | 38.53565 | -107.85295 | 24224 ft | 334 kts | 238° |
| 2026-04-18 02:33 | 38.51969 | -107.87472 | 24223 ft | 340 kts | 229° |
| 2026-04-18 02:34 | 38.50152 | -107.89423 | 24226 ft | 343 kts | 227° |
| 2026-04-18 02:34 | 38.48342 | -107.91381 | 24224 ft | 339 kts | 231° |
| 2026-04-18 02:34 | 38.46698 | -107.93519 | 24226 ft | 337 kts | 233° |
| 2026-04-18 02:34 | 38.44982 | -107.95578 | 24225 ft | 341 kts | 229° |
| 2026-04-18 02:35 | 38.43241 | -107.97560 | 24226 ft | 338 kts | 231° |
| 2026-04-18 02:35 | 38.41581 | -107.99694 | 24033 ft | 341 kts | 232° |
| 2026-04-18 02:35 | 38.39827 | -108.01721 | 23745 ft | 340 kts | 229° |
| 2026-04-18 02:35 | 38.38105 | -108.03762 | 23359 ft | 337 kts | 232° |
| 2026-04-18 02:36 | 38.36435 | -108.05863 | 23036 ft | 338 kts | 230° |
| 2026-04-18 02:36 | 38.34677 | -108.07860 | 22708 ft | 338 kts | 229° |
| 2026-04-18 02:36 | 38.32991 | -108.09924 | 22385 ft | 335 kts | 232° |
| 2026-04-18 02:36 | 38.31307 | -108.11986 | 22065 ft | 337 kts | 230° |
| 2026-04-18 02:37 | 38.29727 | -108.14124 | 21737 ft | 325 kts | 241° |
| 2026-04-18 02:37 | 38.28511 | -108.16485 | 21425 ft | 323 kts | 242° |
| 2026-04-18 02:37 | 38.27145 | -108.18774 | 21129 ft | 328 kts | 236° |
| 2026-04-18 02:37 | 38.25508 | -108.20840 | 20841 ft | 334 kts | 230° |
| 2026-04-18 02:38 | 38.23759 | -108.22783 | 20433 ft | 334 kts | 228° |
| 2026-04-18 02:38 | 38.21871 | -108.24512 | 19911 ft | 338 kts | 218° |
| 2026-04-18 02:38 | 38.19781 | -108.25912 | 19407 ft | 340 kts | 215° |
| 2026-04-18 02:38 | 38.18017 | -108.27225 | 18972 ft | 340 kts | 221° |
| 2026-04-18 02:39 | 38.16128 | -108.28719 | 18468 ft | 299 kts | 220° |
| 2026-04-18 02:39 | 38.14327 | -108.29946 | 17899 ft | 299 kts | 214° |
| 2026-04-18 02:39 | 38.12314 | -108.30729 | 17310 ft | 308 kts | 198° |
| 2026-04-18 02:39 | 38.10152 | -108.30821 | 16760 ft | 317 kts | 180° |
| 2026-04-18 02:40 | 38.08000 | -108.30155 | 16218 ft | 322 kts | 163° |
| 2026-04-18 02:40 | 38.06116 | -108.28622 | 15688 ft | 325 kts | 138° |
| 2026-04-18 02:40 | 38.04689 | -108.26411 | 15176 ft | 323 kts | 125° |
| 2026-04-18 02:40 | 38.03525 | -108.24000 | 14658 ft | 319 kts | 119° |
| 2026-04-18 02:41 | 38.02572 | -108.21498 | 14151 ft | 312 kts | 109° |
| 2026-04-18 02:41 | 38.01896 | -108.18940 | 13619 ft | 308 kts | 105° |
| 2026-04-18 02:41 | 38.01215 | -108.16478 | 13275 ft | 283 kts | 110° |
| 2026-04-18 02:41 | 38.00520 | -108.14200 | 13132 ft | 275 kts | 109° |
| 2026-04-18 02:42 | 37.99838 | -108.11931 | 13072 ft | 275 kts | 109° |
| 2026-04-18 02:42 | 37.99244 | -108.09675 | 12746 ft | 258 kts | 103° |
| 2026-04-18 02:42 | 37.98835 | -108.07573 | 12269 ft | 231 kts | 100° |
| 2026-04-18 02:42 | 37.98531 | -108.05699 | 11858 ft | 205 kts | 100° |
| 2026-04-18 02:43 | 37.98163 | -108.04013 | 11539 ft | 193 kts | 105° |
| 2026-04-18 02:43 | 37.97800 | -108.02508 | 11293 ft | 175 kts | 104° |
| 2026-04-18 02:43 | 37.97494 | -108.01044 | 11053 ft | 170 kts | 103° |
| 2026-04-18 02:43 | 37.97186 | -107.99598 | 10699 ft | 170 kts | 103° |
| 2026-04-18 02:44 | 37.96932 | -107.98218 | 10428 ft | 147 kts | 99° |
| 2026-04-18 02:44 | 37.96701 | -107.96995 | 10206 ft | 138 kts | 104° |
| 2026-04-18 02:44 | 37.96439 | -107.95858 | 9910 ft | 132 kts | 104° |
| 2026-04-18 02:44 | 37.96204 | -107.94733 | 9616 ft | 132 kts | 104° |
| 2026-04-18 02:45 | 37.95968 | -107.93582 | 9388 ft | 138 kts | 105° |
| 2026-04-18 02:45 | 37.95708 | -107.92403 | 9171 ft | 139 kts | 105° |
| 2026-04-18 02:45 | 37.95464 | -107.91272 | 9042 ft | 120 kts | 104° |
| 2026-04-18 02:45 | 37.95310 | -107.90534 | 9052 ft | 53 kts | 105° |
| 2026-04-18 02:46 | 37.95238 | -107.90199 | 9059 ft | 18 kts | 103° |
| 2026-04-18 02:46 | 37.95294 | -107.90124 | 9065 ft | 11 kts | 17° |
| 2026-04-18 02:46 | 37.95349 | -107.90174 | 9065 ft | 13 kts | 281° |
| 2026-04-18 02:46 | 37.95378 | -107.90257 | 9065 ft | 9 kts | 339° |
| 2026-04-18 02:47 | 37.95448 | -107.90242 | 9066 ft | 11 kts | 16° |
| 2026-04-18 02:47 | 37.95485 | -107.90228 | 9066 ft | 0 kts | 16° |